Time;durP1;ratioP1;P1;durP2;ratioP2;P2;SDS_P1;SDS_P2;PMS_P1;PMS_P2;Temp;Humidity;BMP_temperature;BMP_pressure;BME280_temperature;BME280_humidity;BME280_pressure;Samples;Min_cycle;Max_cycle;Signal;HPM_P1;HPM_P2
2021/06/06 00:02:05;;;;;;;4.38;2.70;;;16.10;67.00;;;18.92;54.59;102271.19;5024334;27;97572;-74
2021/06/06 00:04:39;;;;;;;5.43;2.75;;;16.10;67.00;;;18.92;55.07;102251.38;5011871;28;96837;-73
2021/06/06 00:07:10;;;;;;;5.07;3.20;;;16.10;67.00;;;18.91;54.94;102257.91;5029695;27;98360;-74
2021/06/06 00:09:38;;;;;;;2.50;1.17;;;16.10;67.00;;;18.91;54.71;102254.41;5030788;27;97874;-73
2021/06/06 00:12:10;;;;;;;4.60;2.13;;;16.10;67.10;;;18.92;54.41;102251.38;5022589;27;96837;-73
2021/06/06 00:14:40;;;;;;;15.27;5.82;;;16.00;67.00;;;18.93;54.47;102252.97;5043660;27;97201;-73
2021/06/06 00:17:11;;;;;;;2.38;2.17;;;16.10;67.10;;;18.92;54.56;102250.56;5031296;27;97154;-74
2021/06/06 00:19:42;;;;;;;4.43;2.93;;;16.10;67.10;;;18.92;54.66;102245.13;5030415;27;98252;-74
2021/06/06 00:22:11;;;;;;;3.20;1.85;;;16.10;67.10;;;18.92;54.58;102254.09;5024522;27;96744;-73
2021/06/06 00:24:39;;;;;;;21.63;2.47;;;16.00;67.00;;;18.83;54.45;102261.41;5010491;28;96989;-74
2021/06/06 00:27:09;;;;;;;2.65;1.77;;;16.00;67.10;;;18.81;54.69;102266.38;5029278;27;97299;-73
2021/06/06 00:29:38;;;;;;;4.65;2.17;;;16.00;67.00;;;18.86;54.73;102263.50;5026425;27;97426;-74
2021/06/06 00:32:07;;;;;;;4.53;2.80;;;16.00;67.10;;;18.84;54.79;102265.72;5026107;27;96870;-73
2021/06/06 00:34:36;;;;;;;8.68;2.95;;;16.00;67.20;;;18.81;54.80;102266.38;5030914;27;96981;-73
2021/06/06 00:37:09;;;;;;;6.82;2.88;;;16.00;67.10;;;18.80;54.91;102262.06;5010513;28;98430;-73
2021/06/06 00:39:40;;;;;;;2.35;1.92;;;15.90;67.10;;;18.78;54.68;102263.53;5024788;27;97440;-73
2021/06/06 00:42:09;;;;;;;4.35;3.10;;;15.90;67.10;;;18.76;55.01;102263.81;5047429;27;97070;-74
2021/06/06 00:44:37;;;;;;;5.13;3.15;;;15.90;67.10;;;18.76;54.83;102263.81;5042779;27;96958;-73
2021/06/06 00:47:09;;;;;;;5.10;1.88;;;15.90;67.10;;;18.77;54.83;102265.41;5045577;27;96733;-73
2021/06/06 00:49:39;;;;;;;3.63;2.42;;;15.90;67.10;;;18.80;54.65;102267.50;5030864;27;97158;-74
2021/06/06 00:52:13;;;;;;;2.92;1.52;;;15.90;67.10;;;18.95;54.18;102267.81;5025182;27;97370;-74
2021/06/06 00:54:47;;;;;;;5.63;3.15;;;15.90;67.20;;;18.93;54.54;102272.78;5046204;27;96992;-73
2021/06/06 00:57:24;;;;;;;2.33;1.60;;;15.80;67.10;;;18.92;54.11;102276.59;5029620;27;97818;-73
2021/06/06 01:00:14;;;;;;;3.25;2.25;;;15.90;67.20;;;18.93;54.11;102272.78;5025750;27;97223;-73
2021/06/06 01:02:48;;;;;;;4.20;1.27;;;15.80;67.10;;;18.84;54.14;102276.59;5028978;27;97122;-73
2021/06/06 01:05:35;;;;;;;6.25;3.33;;;15.80;67.20;;;18.74;54.53;102276.91;5030701;27;96791;-73
2021/06/06 01:08:16;;;;;;;2.72;1.92;;;15.80;67.20;;;18.65;54.44;102278.84;5041167;27;97390;-73
2021/06/06 01:10:56;;;;;;;4.47;3.08;;;15.80;67.20;;;18.79;54.62;102278.69;5010943;28;99067;-73
2021/06/06 01:13:37;;;;;;;3.30;1.63;;;15.80;67.20;;;18.68;54.55;102277.38;5039613;27;98070;-74
2021/06/06 01:16:14;;;;;;;3.60;2.90;;;15.80;67.20;;;18.66;54.74;102272.28;5029573;27;96954;-73
2021/06/06 01:18:48;;;;;;;3.72;3.10;;;15.80;67.30;;;18.68;54.50;102282.81;5039723;27;97894;-73
2021/06/06 01:21:41;;;;;;;2.22;1.88;;;15.70;67.20;;;18.64;54.76;102282.69;5027625;28;97663;-73
2021/06/06 01:24:26;;;;;;;5.63;3.03;;;15.70;67.30;;;18.70;54.44;102280.59;5045253;27;96959;-74
2021/06/06 01:27:00;;;;;;;4.10;2.60;;;15.70;67.30;;;18.66;54.33;102277.72;5022778;28;98889;-73
2021/06/06 01:29:45;;;;;;;6.15;3.17;;;15.70;67.20;;;18.64;54.66;102281.88;5027949;28;97437;-74
2021/06/06 01:32:23;;;;;;;2.35;2.10;;;15.70;67.30;;;18.68;54.61;102274.69;5030225;27;97400;-73
2021/06/06 01:35:03;;;;;;;3.88;2.35;;;15.70;67.30;;;18.68;54.38;102274.69;5030648;27;97175;-73
2021/06/06 01:37:35;;;;;;;2.47;2.28;;;15.70;67.30;;;18.65;54.53;102284.28;5028853;27;97019;-73
2021/06/06 01:40:14;;;;;;;7.72;2.85;;;15.70;67.30;;;18.62;54.75;102284.09;5047096;27;96754;-73
2021/06/06 01:42:48;;;;;;;1.77;1.67;;;15.70;67.30;;;18.59;54.74;102282.81;5031973;28;97694;-73
2021/06/06 01:45:26;;;;;;;3.13;2.10;;;15.70;67.30;;;18.57;55.25;102281.53;5049269;27;97203;-73
2021/06/06 01:48:03;;;;;;;5.28;2.78;;;15.60;67.20;;;18.54;54.70;102282.97;5034964;27;96705;-73
2021/06/06 01:50:38;;;;;;;12.00;2.92;;;15.70;67.30;;;18.54;54.90;102277.53;5033402;27;97204;-73
2021/06/06 01:53:09;;;;;;;4.25;2.10;;;15.60;67.30;;;18.53;54.97;102275.94;5008102;28;97867;-73
2021/06/06 01:55:46;;;;;;;6.80;3.03;;;15.70;67.30;;;18.54;54.83;102274.81;5032713;27;96789;-73
2021/06/06 01:58:20;;;;;;;2.55;2.10;;;15.60;67.30;;;18.55;54.68;102281.06;5030568;28;96715;-73
2021/06/06 02:01:04;;;;;;;9.93;2.40;;;15.60;67.30;;;18.55;54.80;102278.34;5048384;27;97054;-73
2021/06/06 02:03:36;;;;;;;7.13;2.13;;;15.60;67.40;;;18.56;54.67;102278.00;5045059;27;98677;-73
2021/06/06 02:06:16;;;;;;;8.45;3.45;;;15.60;67.30;;;18.63;54.33;102275.66;5027245;27;97031;-73
2021/06/06 02:08:47;;;;;;;7.70;3.72;;;15.60;67.30;;;18.66;54.27;102274.19;5035307;27;97220;-73
2021/06/06 02:11:33;;;;;;;5.00;1.90;;;15.60;67.40;;;18.63;54.71;102275.66;5027593;27;97984;-73
2021/06/06 02:14:13;;;;;;;7.32;2.70;;;15.60;67.40;;;18.66;54.40;102271.47;5013336;28;96814;-73
2021/06/06 02:16:50;;;;;;;22.45;4.97;;;15.60;68.10;;;18.59;54.43;102271.16;5045693;27;96883;-73
2021/06/06 02:19:40;;;;;;;2.10;1.67;;;15.60;67.40;;;18.55;54.50;102275.63;5032324;27;96976;-73
2021/06/06 02:22:18;;;;;;;27.25;3.60;;;15.60;67.40;;;18.58;54.52;102266.84;5029417;27;98670;-74
2021/06/06 02:24:47;;;;;;;5.63;3.05;;;15.60;67.40;;;18.57;54.88;102270.69;5025158;27;98911;-73
2021/06/06 02:27:28;;;;;;;4.70;2.97;;;15.60;67.50;;;18.56;55.22;102272.59;5017430;28;96895;-74
2021/06/06 02:30:12;;;;;;;7.88;3.25;;;15.60;67.60;;;18.52;54.51;102268.13;5049816;27;97139;-73
2021/06/06 02:33:03;;;;;;;12.73;3.53;;;15.60;67.50;;;18.54;54.56;102271.31;5050452;27;97810;-73
2021/06/06 02:35:38;;;;;;;6.82;2.95;;;15.60;67.60;;;18.53;54.65;102267.78;5032638;27;97550;-73
2021/06/06 02:38:14;;;;;;;4.53;3.33;;;15.60;67.60;;;18.55;54.59;102270.19;5027815;27;96903;-74
2021/06/06 02:40:57;;;;;;;;;;;15.60;67.50;;;18.54;54.53;102272.09;5033484;27;96910;-73
2021/06/06 02:43:41;;;;;;;1.50;1.40;;;15.60;67.70;;;18.46;54.72;102272.91;5047391;27;96935;-73
2021/06/06 02:46:14;;;;;;;5.05;3.45;;;15.60;67.50;;;18.47;54.41;102271.78;5042021;27;97746;-73
2021/06/06 02:48:47;;;;;;;4.03;2.55;;;15.50;67.50;;;18.48;54.47;102261.72;5026923;28;96751;-73
2021/06/06 02:51:26;;;;;;;4.25;3.70;;;15.50;67.50;;;18.50;54.62;102268.44;5027913;27;96916;-73
2021/06/06 02:54:03;;;;;;;2.83;1.85;;;15.50;67.50;;;18.52;54.82;102260.75;5030563;27;98591;-73
2021/06/06 02:56:46;;;;;;;4.80;2.72;;;15.50;67.50;;;18.55;54.54;102267.47;5042141;27;97237;-73
2021/06/06 02:59:24;;;;;;;5.60;2.88;;;15.50;67.50;;;18.49;54.75;102258.69;5030679;27;97451;-73
2021/06/06 03:02:04;;;;;;;4.95;2.40;;;15.60;67.60;;;18.49;54.77;102252.47;5013827;28;96960;-73
2021/06/06 03:04:38;;;;;;;3.83;2.38;;;15.60;67.60;;;18.49;54.73;102258.69;5049302;27;98472;-73
2021/06/06 03:07:16;;;;;;;5.80;3.42;;;15.60;67.50;;;18.46;54.78;102259.31;5029136;27;98740;-73
2021/06/06 03:09:45;;;;;;;3.80;2.97;;;15.60;67.60;;;18.40;55.01;102248.94;5030854;27;96890;-73
2021/06/06 03:12:18;;;;;;;5.10;2.33;;;15.60;67.50;;;18.40;54.76;102249.75;5028625;28;97038;-73
2021/06/06 03:14:50;;;;;;;16.88;4.75;;;15.60;67.60;;;18.42;54.86;102250.22;5029704;27;97976;-73
2021/06/06 03:17:32;;;;;;;4.70;2.60;;;15.50;67.60;;;18.45;55.01;102257.72;5032809;27;97748;-73
2021/06/06 03:20:13;;;;;;;8.60;3.67;;;15.50;67.60;;;18.42;55.05;102257.53;5012286;27;96791;-74
2021/06/06 03:22:48;;;;;;;6.50;2.75;;;15.50;67.60;;;18.44;55.24;102261.56;5032209;27;96872;-73
2021/06/06 03:25:38;;;;;;;8.48;3.53;;;15.50;67.60;;;18.39;54.89;102253.56;5045104;27;97962;-73
2021/06/06 03:28:12;;;;;;;6.82;2.83;;;15.50;67.60;;;18.42;55.19;102266.50;5030683;27;96673;-73
2021/06/06 03:30:46;;;;;;;9.88;4.13;;;15.50;67.60;;;18.40;54.97;102265.22;5013026;28;97352;-73
2021/06/06 03:33:52;;;;;;;3.30;1.58;;;15.50;67.70;;;18.46;54.90;102267.47;5032005;27;96741;-74
2021/06/06 03:36:39;;;;;;;1.80;1.52;;;15.60;67.70;;;18.46;55.42;102262.03;5046239;27;98620;-73
2021/06/06 03:39:16;;;;;;;7.45;2.45;;;15.60;67.70;;;18.48;55.12;102267.94;5013051;28;98095;-73
2021/06/06 03:41:46;;;;;;;6.40;1.92;;;15.60;67.60;;;18.45;54.91;102263.16;5028721;27;96761;-73
2021/06/06 03:44:15;;;;;;;3.72;2.85;;;15.60;67.60;;;18.52;55.20;102268.13;5019329;27;96926;-73
2021/06/06 03:46:46;;;;;;;3.72;2.70;;;15.50;67.60;;;18.54;54.79;102263.97;5015471;28;97941;-73
2021/06/06 03:49:17;;;;;;;1.60;1.33;;;15.60;67.70;;;18.55;54.99;102268.28;5047780;27;96746;-74
2021/06/06 03:51:48;;;;;;;1.90;1.80;;;15.60;67.70;;;18.60;54.82;102270.81;5046108;27;97763;-73
2021/06/06 03:54:19;;;;;;;7.45;4.57;;;15.60;67.60;;;18.66;54.44;102268.75;5044744;27;96858;-73
2021/06/06 03:56:50;;;;;;;6.38;3.28;;;15.60;67.70;;;18.69;54.53;102268.94;5027363;27;98982;-73
2021/06/06 03:59:24;;;;;;;0.82;0.82;;;15.60;67.60;;;18.73;54.28;102275.31;5026187;27;97784;-73
2021/06/06 04:01:55;;;;;;;4.20;2.40;;;15.60;67.70;;;18.77;54.38;102275.50;5013755;28;96811;-73
2021/06/06 04:04:29;;;;;;;9.00;3.03;;;15.60;67.60;;;18.79;54.42;102274.03;5030442;27;96794;-73
2021/06/06 04:06:59;;;;;;;19.63;2.70;;;15.70;67.70;;;18.79;54.45;102273.25;5026060;27;98409;-73
2021/06/06 04:09:30;;;;;;;4.60;2.15;;;15.70;67.70;;;18.76;54.58;102274.69;5017501;27;99130;-73
2021/06/06 04:11:58;;;;;;;5.90;3.10;;;15.70;67.60;;;18.77;54.74;102270.84;5030487;27;96881;-73
2021/06/06 04:14:30;;;;;;;3.83;1.80;;;15.70;67.70;;;18.72;54.83;102265.59;5011169;28;96786;-74
2021/06/06 04:17:06;;;;;;;2.83;2.63;;;15.70;67.60;;;18.69;54.94;102268.94;5029716;27;96982;-73
2021/06/06 04:19:41;;;;;;;4.18;2.10;;;15.70;67.70;;;18.69;55.12;102263.50;5029990;27;98896;-73
2021/06/06 04:22:11;;;;;;;10.18;3.58;;;15.80;67.70;;;18.78;55.01;102264.31;5040428;27;96867;-73
2021/06/06 04:24:39;;;;;;;11.90;4.85;;;15.80;67.70;;;18.84;54.86;102260.31;5028706;27;97554;-73
2021/06/06 04:27:12;;;;;;;7.78;3.13;;;15.80;67.70;;;18.86;54.86;102268.94;5028785;27;98176;-73
2021/06/06 04:29:40;;;;;;;14.15;4.25;;;15.80;67.70;;;18.78;54.83;102261.59;5030443;27;98767;-73
2021/06/06 04:32:15;;;;;;;3.08;1.88;;;15.80;67.70;;;18.79;55.08;102268.63;5025911;27;96883;-73
2021/06/06 04:34:48;;;;;;;2.33;1.85;;;15.80;67.70;;;18.79;55.64;102267.84;5027540;27;96912;-73
2021/06/06 04:37:20;;;;;;;2.38;1.48;;;15.90;67.80;;;18.80;55.26;102267.50;5027742;28;97444;-73
2021/06/06 04:39:50;;;;;;;6.15;2.83;;;15.90;67.70;;;18.80;55.48;102269.44;5042524;27;96999;-73
2021/06/06 04:42:21;;;;;;;6.25;3.15;;;15.90;67.70;;;18.87;55.15;102270.53;5047519;27;96919;-73
2021/06/06 04:44:52;;;;;;;2.05;1.85;;;15.90;67.70;;;18.86;55.18;102276.28;5009257;28;96918;-73
2021/06/06 04:47:22;;;;;;;10.50;3.85;;;15.90;67.70;;;18.91;55.26;102268.75;5030689;27;97955;-73
2021/06/06 04:49:55;;;;;;;3.13;2.17;;;16.00;67.80;;;18.91;55.33;102266.03;5028632;27;97473;-74
2021/06/06 04:52:24;;;;;;;5.60;2.47;;;16.00;67.80;;;18.93;55.42;102259.19;5023558;27;96894;-74
2021/06/06 04:54:54;;;;;;;4.80;3.83;;;16.00;67.70;;;19.00;55.16;102261.44;5024796;27;97049;-73
2021/06/06 04:57:25;;;;;;;7.93;3.03;;;16.10;67.70;;;19.03;55.41;102266.22;5030454;27;97212;-73
2021/06/06 04:59:53;;;;;;;4.10;2.47;;;16.10;67.70;;;19.10;55.20;102261.09;5043358;27;99143;-73
2021/06/06 05:02:24;;;;;;;5.15;2.97;;;16.10;67.70;;;19.18;54.55;102263.84;5030866;27;97192;-74
2021/06/06 05:04:58;;;;;;;2.67;2.10;;;16.20;67.70;;;19.17;55.12;102266.84;5032206;27;97289;-73
2021/06/06 05:07:30;;;;;;;8.20;4.15;;;16.20;67.70;;;19.26;54.53;102270.38;5030446;27;96893;-73
2021/06/06 05:09:59;;;;;;;8.25;3.38;;;16.20;67.70;;;19.27;54.47;102271.97;5026850;27;97392;-73
2021/06/06 05:12:35;;;;;;;2.40;1.90;;;16.20;67.70;;;19.28;54.75;102262.72;5030698;27;96714;-73
2021/06/06 05:15:07;;;;;;;9.35;3.85;;;16.20;67.70;;;19.35;54.75;102271.16;5029259;27;97996;-73
2021/06/06 05:17:37;;;;;;;7.63;3.00;;;16.20;67.70;;;19.38;54.71;102275.94;5009516;28;97312;-73
2021/06/06 05:20:11;;;;;;;2.42;2.22;;;16.30;67.70;;;19.35;54.91;102271.94;5046835;27;97761;-73
2021/06/06 05:22:40;;;;;;;8.90;4.60;;;16.30;67.70;;;19.39;54.45;102272.09;5043821;27;96777;-73
2021/06/06 05:25:13;;;;;;;3.05;1.42;;;16.30;67.70;;;19.41;54.91;102264.44;5028692;27;97145;-73
2021/06/06 05:27:43;;;;;;;5.38;2.10;;;16.30;67.80;;;19.46;54.48;102262.34;4996447;28;99007;-73
2021/06/06 05:30:22;;;;;;;15.57;4.28;;;16.30;67.70;;;19.48;54.67;102264.72;5031163;27;97695;-74
2021/06/06 05:32:53;;;;;;;3.88;2.92;;;16.30;67.80;;;19.55;54.77;102267.75;5043181;27;97093;-74
2021/06/06 05:35:27;;;;;;;9.43;4.35;;;16.40;67.80;;;19.56;54.43;102266.66;5028353;27;96814;-73
2021/06/06 05:37:56;;;;;;;4.40;2.45;;;16.40;67.80;;;19.61;54.63;102259.09;5006687;28;96735;-73
2021/06/06 05:40:29;;;;;;;14.98;2.03;;;16.50;67.90;;;19.69;54.37;102265.63;5029838;27;99174;-73
2021/06/06 05:42:58;;;;;;;8.23;3.73;;;16.50;67.80;;;19.74;54.59;102265.44;5012849;28;96905;-73
2021/06/06 05:45:26;;;;;;;3.00;2.67;;;16.50;67.80;;;19.82;53.81;102275.50;5033095;27;96977;-73
2021/06/06 05:47:56;;;;;;;6.07;2.72;;;16.60;67.80;;;19.90;54.31;102274.69;5028991;27;98376;-73
2021/06/06 05:50:35;;;;;;;4.00;2.92;;;16.60;67.80;;;19.95;54.76;102277.22;5027835;27;97724;-73
2021/06/06 05:53:30;;;;;;;6.25;3.65;;;16.70;67.80;;;19.96;54.62;102276.09;5029699;27;96736;-73
2021/06/06 05:55:58;;;;;;;15.90;4.00;;;16.70;67.80;;;20.00;53.81;102277.03;5029693;27;97114;-73
2021/06/06 05:58:26;;;;;;;3.55;2.38;;;16.80;67.90;;;20.00;54.02;102271.59;5031410;27;98454;-73
2021/06/06 06:00:55;;;;;;;9.95;3.88;;;16.80;67.80;;;20.03;53.83;102276.41;5027951;28;97984;-73
2021/06/06 06:03:24;;;;;;;10.52;2.83;;;16.80;67.80;;;20.04;54.82;102280.72;5030536;27;96795;-73
2021/06/06 06:05:58;;;;;;;1.73;1.25;;;16.90;67.80;;;20.01;54.91;102286.81;5028700;28;96933;-74
2021/06/06 06:08:32;;;;;;;3.42;2.13;;;16.90;67.80;;;20.00;54.26;102283.28;5027200;27;97686;-73
2021/06/06 06:11:09;;;;;;;5.07;2.33;;;16.90;67.70;;;20.10;53.93;102285.66;5026867;27;98812;-73
2021/06/06 06:13:37;;;;;;;2.85;1.75;;;16.90;67.80;;;20.21;54.73;102288.81;5029528;27;96710;-73
2021/06/06 06:16:11;;;;;;;1.58;1.45;;;16.90;67.80;;;20.31;53.49;102286.50;5027878;27;97493;-73
2021/06/06 06:18:42;;;;;;;5.25;3.05;;;17.00;67.90;;;20.29;54.52;102286.03;5044045;27;97878;-73
2021/06/06 06:21:14;;;;;;;12.23;3.58;;;17.00;67.80;;;20.27;54.57;102284.75;5015440;28;98028;-73
2021/06/06 06:23:44;;;;;;;2.92;1.80;;;17.10;67.80;;;20.25;54.42;102287.81;5031398;27;96673;-73
2021/06/06 06:26:13;;;;;;;4.75;2.92;;;17.10;67.90;;;20.22;54.79;102291.19;5028848;28;98133;-73
2021/06/06 06:28:49;;;;;;;3.03;1.98;;;17.10;67.80;;;20.23;54.70;102292.00;5029847;27;98215;-73
2021/06/06 06:31:38;;;;;;;7.82;2.17;;;17.10;67.90;;;20.27;54.92;102292.94;5032356;27;96841;-73
2021/06/06 06:34:13;;;;;;;6.50;3.88;;;17.10;67.90;;;20.28;54.06;102300.78;5032107;27;97275;-74
2021/06/06 06:36:42;;;;;;;5.43;2.70;;;17.10;67.90;;;20.29;54.38;102290.69;5034173;27;98732;-73
2021/06/06 06:39:10;;;;;;;3.97;1.92;;;17.10;67.90;;;20.31;53.83;102294.69;5032761;27;97963;-74
2021/06/06 06:41:39;;;;;;;1.17;1.13;;;17.10;67.90;;;20.35;54.04;102290.16;5048644;27;98212;-74
2021/06/06 06:44:07;;;;;;;3.08;1.73;;;17.20;67.90;;;20.22;54.46;102290.41;5033871;27;96842;-73
2021/06/06 06:46:36;;;;;;;1.95;1.58;;;17.10;67.90;;;20.31;55.06;102293.88;5015437;28;97027;-74
2021/06/06 06:49:08;;;;;;;6.80;1.88;;;17.10;67.80;;;20.29;54.61;102291.50;5014853;27;98185;-74
2021/06/06 06:51:38;;;;;;;4.45;2.40;;;17.10;67.90;;;20.29;54.57;102288.78;5031182;27;97211;-73
2021/06/06 06:54:06;;;;;;;4.75;1.80;;;17.10;67.90;;;20.34;54.65;102299.47;5033232;27;96822;-73
2021/06/06 06:56:34;;;;;;;33.08;3.58;;;17.10;68.00;;;20.35;55.08;102302.97;5046990;27;96691;-74
2021/06/06 06:59:04;;;;;;;9.75;1.98;;;17.20;68.00;;;20.35;54.65;102302.97;5029621;27;97009;-73
2021/06/06 07:01:32;;;;;;;10.60;2.00;;;17.20;68.00;;;20.35;54.77;102306.50;5028567;28;96935;-74
2021/06/06 07:04:03;;;;;;;6.75;2.45;;;17.20;68.00;;;20.31;55.57;102304.75;5033462;27;96845;-74
2021/06/06 07:06:32;;;;;;;8.20;2.83;;;17.20;68.60;;;20.28;55.06;102308.13;5029358;27;96880;-73
2021/06/06 07:09:03;;;;;;;2.03;1.17;;;17.20;68.00;;;20.26;54.99;102313.13;5030878;28;97343;-73
2021/06/06 07:11:31;;;;;;;2.13;1.60;;;17.20;68.00;;;20.26;54.98;102305.72;5033305;27;97766;-73
2021/06/06 07:14:00;;;;;;;1.75;1.45;;;17.20;68.00;;;20.31;54.75;102318.38;5036887;27;96890;-74
2021/06/06 07:16:32;;;;;;;2.70;1.98;;;17.30;68.10;;;20.35;54.82;102314.66;5017956;28;96825;-74
2021/06/06 07:19:01;;;;;;;5.68;2.40;;;17.30;68.00;;;20.39;55.17;102322.97;5033343;27;97919;-74
2021/06/06 07:21:32;;;;;;;8.95;2.90;;;17.30;68.00;;;20.48;54.33;102326.47;5033259;27;99148;-74
2021/06/06 07:24:07;;;;;;;2.60;1.55;;;17.30;68.00;;;20.48;54.63;102329.19;5031946;27;96971;-73
2021/06/06 07:26:42;;;;;;;16.15;0.95;;;17.30;68.00;;;20.48;54.51;102332.69;5031920;27;96789;-73
2021/06/06 07:29:15;;;;;;;3.17;2.22;;;17.30;68.00;;;20.45;55.13;102333.34;5009721;28;98704;-73
2021/06/06 07:31:48;;;;;;;;;;;17.30;68.00;;;20.47;54.58;102330.31;5032515;27;97661;-73
2021/06/06 07:34:17;;;;;;;3.92;2.13;;;17.30;68.10;;;20.47;55.09;102333.81;5043716;27;97506;-73
2021/06/06 07:36:47;;;;;;;4.32;1.85;;;17.30;68.00;;;20.51;54.59;102325.78;5032437;27;96982;-74
2021/06/06 07:39:17;;;;;;;8.82;2.15;;;17.30;68.00;;;20.59;54.50;102329.25;5027333;27;97924;-73
2021/06/06 07:41:47;;;;;;;1.45;1.35;;;17.30;68.00;;;20.70;54.89;102325.00;5047996;27;97848;-73
2021/06/06 07:44:16;;;;;;;4.53;1.88;;;17.40;68.10;;;20.60;55.02;102319.97;5032560;28;97526;-73
2021/06/06 07:46:45;;;;;;;4.05;1.73;;;17.40;68.10;;;20.73;54.23;102323.56;5032751;27;96967;-73
2021/06/06 07:49:16;;;;;;;2.22;1.23;;;17.40;68.00;;;20.61;54.80;102328.94;5027974;28;97814;-74
2021/06/06 07:51:45;;;;;;;1.75;1.58;;;17.50;68.00;;;20.65;54.61;102327.16;5032524;27;97729;-73
2021/06/06 07:54:15;;;;;;;0.77;0.77;;;17.50;68.00;;;20.76;54.91;102323.72;5047916;27;96931;-73
2021/06/06 07:56:44;;;;;;;5.38;2.17;;;17.50;68.10;;;20.92;54.17;102323.94;5031496;27;96954;-73
2021/06/06 07:59:12;;;;;;;4.93;1.27;;;17.60;68.10;;;21.06;53.66;102321.72;5031048;27;96852;-73
2021/06/06 08:01:41;;;;;;;6.32;3.17;;;17.70;68.00;;;21.18;54.24;102330.78;5029286;27;97726;-73
2021/06/06 08:04:10;;;;;;;1.67;0.85;;;17.80;68.00;;;21.33;54.30;102335.63;5041721;27;97303;-74
2021/06/06 08:06:38;;;;;;;3.40;2.70;;;17.90;68.00;;;21.32;53.84;102336.75;5029329;27;100454;-73
2021/06/06 08:09:07;;;;;;;1.48;1.38;;;17.90;67.90;;;21.35;54.20;102330.63;5047505;27;96931;-72
2021/06/06 08:11:39;;;;;;;4.10;1.65;;;18.00;67.90;;;21.37;54.51;102330.28;5010748;28;96906;-73
2021/06/06 08:14:08;;;;;;;1.55;1.45;;;18.00;67.90;;;21.45;53.94;102335.66;5028630;27;96632;-74
2021/06/06 08:16:37;;;;;;;2.33;1.15;;;18.10;67.90;;;21.48;53.87;102336.94;5031102;27;97413;-76
2021/06/06 08:19:06;;;;;;;1.67;1.25;;;18.10;67.80;;;21.50;54.62;102337.38;5029718;27;97135;-72
2021/06/06 08:21:41;;;;;;;2.30;1.65;;;18.20;67.80;;;21.51;53.87;102328.06;5013890;27;97680;-73
2021/06/06 08:24:10;;;;;;;15.40;2.33;;;18.20;67.80;;;21.50;54.80;102340.13;5044595;27;96870;-72
2021/06/06 08:26:40;;;;;;;2.63;1.02;;;18.20;67.70;;;21.56;53.80;102331.34;5031598;27;96761;-72
2021/06/06 08:29:10;;;;;;;2.75;1.60;;;18.20;67.70;;;21.57;54.10;102332.97;5027472;28;98031;-72
2021/06/06 08:31:43;;;;;;;2.83;1.83;;;18.30;67.80;;;21.67;53.93;102329.03;5028998;27;97678;-72
2021/06/06 08:34:12;;;;;;;2.58;1.70;;;18.30;67.80;;;21.79;53.59;102324.41;5027076;27;97359;-72
2021/06/06 08:36:45;;;;;;;3.78;1.48;;;18.40;67.80;;;21.87;53.72;102330.91;5029265;28;97149;-73
2021/06/06 08:39:18;;;;;;;;;;;18.40;67.80;;;21.83;53.74;102336.25;5026856;27;97463;-72
2021/06/06 08:41:58;;;;;;;6.55;2.22;;;18.50;67.80;;;21.59;54.81;102333.41;5024989;27;97732;-72
2021/06/06 08:44:32;;;;;;;6.97;2.35;;;18.50;67.70;;;21.57;54.85;102338.41;5040330;27;97168;-72
2021/06/06 08:47:08;;;;;;;2.83;1.00;;;18.50;67.70;;;21.48;55.29;102337.72;5030294;27;97329;-72
2021/06/06 08:49:42;;;;;;;3.85;2.60;;;18.40;67.70;;;21.43;54.66;102348.84;5024778;27;98231;-72
2021/06/06 08:52:35;;;;;;;4.82;2.20;;;18.40;67.70;;;21.23;55.72;102341.47;5030160;27;97728;-72
2021/06/06 08:55:25;;;;;;;2.92;2.63;;;18.30;67.80;;;21.19;55.13;102348.72;5024807;27;96752;-73
2021/06/06 08:58:13;;;;;;;7.68;3.13;;;18.20;67.80;;;21.17;55.89;102348.25;5023837;27;96914;-73
2021/06/06 09:00:47;;;;;;;4.93;2.05;;;18.20;67.90;;;21.26;54.78;102353.66;5038484;27;97714;-74
2021/06/06 09:03:24;;;;;;;1.55;1.45;;;18.20;68.00;;;21.32;55.45;102355.84;5009186;28;97296;-73
2021/06/06 09:06:04;;;;;;;3.67;1.95;;;18.20;68.00;;;21.30;55.67;102354.56;5027686;27;96958;-73
2021/06/06 09:08:38;;;;;;;0.77;0.75;;;18.20;68.00;;;21.15;55.71;102360.63;5028548;27;97830;-73
2021/06/06 09:11:11;;;;;;;1.25;1.15;;;18.20;68.00;;;21.29;55.49;102358.44;5026329;28;97033;-73
2021/06/06 09:13:41;;;;;;;5.15;3.08;;;18.20;68.10;;;21.35;55.17;102362.53;5030691;27;97693;-73
2021/06/06 09:16:19;;;;;;;1.75;1.50;;;18.30;68.10;;;21.49;54.83;102361.13;5028339;27;97672;-73
2021/06/06 09:19:04;;;;;;;3.03;1.70;;;18.30;68.20;;;21.68;54.78;102358.72;5028238;27;97005;-72
2021/06/06 09:21:33;;;;;;;1.83;1.73;;;18.50;68.30;;;21.92;54.79;102364.25;5029412;27;100227;-73
2021/06/06 09:24:13;;;;;;;1.25;1.15;;;18.70;68.30;;;22.23;54.60;102357.13;5025222;27;97696;-72
2021/06/06 09:26:42;;;;;;;2.63;2.10;;;18.80;68.20;;;22.33;54.58;102361.34;5023500;27;97713;-74
2021/06/06 09:29:22;;;;;;;1.65;1.50;;;19.00;68.10;;;22.57;54.31;102367.63;5028771;27;97335;-72
2021/06/06 09:32:05;;;;;;;3.03;1.25;;;19.20;68.00;;;22.65;54.29;102366.69;5040632;27;97918;-72
2021/06/06 09:34:34;;;;;;;6.03;1.95;;;19.30;67.80;;;22.74;54.11;102363.84;5027386;27;96904;-72
2021/06/06 09:37:12;;;;;;;4.53;1.83;;;19.40;67.70;;;22.94;54.03;102360.94;5028919;27;96753;-72
2021/06/06 09:39:46;;;;;;;1.52;1.42;;;19.60;67.70;;;22.99;54.18;102362.66;5042101;27;96857;-72
2021/06/06 09:42:28;;;;;;;1.35;1.25;;;19.70;67.60;;;23.08;54.16;102357.84;5029432;27;97827;-73
2021/06/06 09:45:22;;;;;;;7.30;2.05;;;19.80;67.50;;;23.10;54.23;102363.75;5041183;27;97694;-74
2021/06/06 09:48:15;;;;;;;5.47;1.70;;;19.90;67.50;;;23.08;54.46;102363.31;5026118;27;97339;-73
2021/06/06 09:51:18;;;;;;;13.83;3.17;;;19.90;67.40;;;22.99;54.51;102368.13;5027665;27;97087;-72
2021/06/06 09:53:46;;;;;;;16.05;2.55;;;19.90;67.30;;;22.94;54.81;102365.63;5023176;27;97048;-72
2021/06/06 09:56:26;;;;;;;3.20;1.58;;;19.90;67.20;;;22.95;54.91;102368.00;5040177;27;97692;-72
2021/06/06 09:59:12;;;;;;;1.83;1.42;;;19.90;67.30;;;22.91;54.65;102369.84;5009643;28;96887;-73
2021/06/06 10:01:58;;;;;;;3.33;1.92;;;19.90;67.30;;;22.84;55.11;102377.06;5045623;27;97097;-73
2021/06/06 10:04:31;;;;;;;3.08;2.08;;;19.90;67.40;;;22.69;55.12;102378.56;5044736;27;98287;-73
2021/06/06 10:07:13;;;;;;;4.10;2.15;;;19.80;67.30;;;22.58;55.22;102379.34;5028557;27;99202;-72
2021/06/06 10:09:51;;;;;;;0.77;0.77;;;19.70;67.40;;;22.49;55.73;102375.91;5030183;27;96830;-74
2021/06/06 10:12:31;;;;;;;7.78;3.15;;;19.60;67.40;;;22.48;55.28;102371.59;5032810;27;97394;-73
2021/06/06 10:15:06;;;;;;;1.02;0.95;;;19.60;67.60;;;22.53;55.53;102376.84;5027497;28;98055;-73
2021/06/06 10:17:43;;;;;;;2.45;1.40;;;19.50;67.70;;;22.62;55.18;102375.56;5032225;27;97648;-73
2021/06/06 10:20:21;;;;;;;3.20;2.17;;;19.50;67.70;;;22.72;54.66;102377.06;5041387;27;96913;-73
2021/06/06 10:22:58;;;;;;;2.35;1.10;;;19.50;67.70;;;22.82;54.98;102371.13;5024004;27;98190;-74
2021/06/06 10:25:36;;;;;;;3.50;1.85;;;19.60;67.80;;;23.05;54.70;102377.69;5027235;28;98462;-72
2021/06/06 10:28:09;;;;;;;1.63;1.40;;;19.70;67.80;;;23.32;54.24;102366.81;5029598;27;96841;-73
2021/06/06 10:30:45;;;;;;;3.97;1.73;;;19.90;67.90;;;23.44;54.49;102374.19;5022699;27;98564;-72
2021/06/06 10:33:28;;;;;;;2.75;2.55;;;20.00;67.80;;;23.56;54.41;102369.41;5027702;27;97219;-73
2021/06/06 10:36:00;;;;;;;6.10;4.10;;;20.10;67.60;;;23.67;54.15;102366.97;5020541;27;97239;-73
2021/06/06 10:38:33;;;;;;;10.07;1.52;;;20.30;67.60;;;23.66;54.05;102382.63;5027810;28;97258;-72
2021/06/06 10:41:17;;;;;;;6.10;2.38;;;20.40;67.50;;;23.67;54.10;102372.44;5031426;27;96919;-73
2021/06/06 10:43:56;;;;;;;2.95;1.60;;;20.40;67.40;;;23.63;54.41;102364.16;5046830;27;96788;-73